Aérodrome :







RETROUVEZ-NOUS SUR...

 
LOGIN :

S'inscrire | Disclaimer

   EN    FR    IT 

 









Légende :    VFR   VFR Marginal   IFR   IFR Intensif   IFR Très Intensif
Visi : 
Plafond : 
>= 8 km
>= 3000ft
5 à 8 km
1000 à 3000 ft
1500m à 5 km
500 à 1000 ft
800 à 1500m
200 à 500 ft
< 800m
< 200 ft
Symboles :   Orages  Brouillard  Fortes neiges  Fortes précipitations  Vent > 20 kt






- Altitude de l'aérodrome : 84 ft
- Code IATA : YJT


CYJT - Stephenville

DERNIER METAR :
  • 261700Z 32004KT 12SM SCT008 OVC012 M02/M03 A3003 RMK SF3SF5 SLP171

METARs EXPIRÉS :
  • 261600Z 31005KT 10SM FEW004 BKN008 M02/M03 A3002 RMK SF2SF6 SLP170
  • 261500Z 32009KT 250V330 6SM BR SCT004 BKN006 OVC012 M02/M03 A3002 RMK SF3SF3SF2 SLP170

TAF AMD TAF CYJT
Valide du 26 à 13h jusqu'au 27 à 12h UTC


261354Z 2613/2712 VRB03KT 3/4SM BR OVC001
TEMPO 2613/2615 6SM BR FEW004 OVC012
FM261500 VRB03KT 11/2SM BR OVC005
TEMPO 2615/2617 6SM BR FEW005 OVC015
BECMG 2615/2617 31010KT
FM261700 31010KT P6SM OVC006
TEMPO 2617/2620 SCT008 OVC015
FM262000 32010KT P6SM SCT008 OVC015
BECMG 2704/2706 36008KT
FM270600 36008KT P6SM SCT015 RMK NXT FCST BY 261800Z



MET'MAP, la Météo Aéronautique d'un coup d'oeil ! - Copyright ORBIFLY Décembre 2007 - Disclaimer

ORBIFLY MET'MAP TEAM :

Programmation & Développement : Alexandra Zaïnal
Sur une idée originale de : Baudouin d'Aumeries
Assistance à la programmation : Marc-Olivier Méhu
Soutien technique & logistique : Manuel Goepfert

Contact : metmap@orbifly.com




SOURCES & CREDITS :

   NOAA